sensor_id;sensor_type;location;lat;lon;timestamp;pressure;altitude;pressure_sealevel;temperature;humidity
10135;BME280;5107;48.850;8.924;2022-10-19T00:01:13;97805.84;;;13.31;95.25
10135;BME280;5107;48.850;8.924;2022-10-19T00:03:42;97811.97;;;13.32;94.84
10135;BME280;5107;48.850;8.924;2022-10-19T00:06:13;97806.69;;;13.32;94.41
10135;BME280;5107;48.850;8.924;2022-10-19T00:08:41;97810.66;;;13.27;93.86
10135;BME280;5107;48.850;8.924;2022-10-19T00:11:09;97806.34;;;13.26;96.04
10135;BME280;5107;48.850;8.924;2022-10-19T00:13:37;97804.38;;;13.28;98.30
10135;BME280;5107;48.850;8.924;2022-10-19T00:16:08;97805.56;;;13.34;97.56
10135;BME280;5107;48.850;8.924;2022-10-19T00:18:35;97808.03;;;13.36;97.45
10135;BME280;5107;48.850;8.924;2022-10-19T00:21:04;97804.72;;;13.34;96.70
10135;BME280;5107;48.850;8.924;2022-10-19T00:23:33;97801.38;;;13.23;96.01
10135;BME280;5107;48.850;8.924;2022-10-19T00:26:01;97798.25;;;13.20;96.13
10135;BME280;5107;48.850;8.924;2022-10-19T00:28:28;97802.31;;;13.14;95.94
10135;BME280;5107;48.850;8.924;2022-10-19T00:30:55;97801.53;;;13.14;96.25
10135;BME280;5107;48.850;8.924;2022-10-19T00:33:22;97800.88;;;13.20;96.68
10135;BME280;5107;48.850;8.924;2022-10-19T00:35:51;97800.88;;;13.20;97.01
10135;BME280;5107;48.850;8.924;2022-10-19T00:38:20;97804.84;;;13.24;97.52
10135;BME280;5107;48.850;8.924;2022-10-19T00:40:48;97800.56;;;13.31;97.75
10135;BME280;5107;48.850;8.924;2022-10-19T00:43:18;97804.06;;;13.40;97.49
10135;BME280;5107;48.850;8.924;2022-10-19T00:45:47;97806.72;;;13.40;96.48
10135;BME280;5107;48.850;8.924;2022-10-19T00:48:18;97806.72;;;13.40;95.47
10135;BME280;5107;48.850;8.924;2022-10-19T00:50:47;97803.16;;;13.15;94.30
10135;BME280;5107;48.850;8.924;2022-10-19T00:53:16;97802.03;;;12.91;93.85
10135;BME280;5107;48.850;8.924;2022-10-19T00:55:43;97807.63;;;12.88;94.16
10135;BME280;5107;48.850;8.924;2022-10-19T00:58:12;97803.09;;;12.81;93.86
10135;BME280;5107;48.850;8.924;2022-10-19T01:00:40;97798.84;;;12.80;94.29
10135;BME280;5107;48.850;8.924;2022-10-19T01:03:07;97797.00;;;12.80;94.50
10135;BME280;5107;48.850;8.924;2022-10-19T01:05:35;97799.81;;;12.79;94.94
10135;BME280;5107;48.850;8.924;2022-10-19T01:08:03;97802.47;;;12.79;94.84
10135;BME280;5107;48.850;8.924;2022-10-19T01:10:40;97804.44;;;12.77;95.22
10135;BME280;5107;48.850;8.924;2022-10-19T01:13:23;97800.28;;;12.74;96.69
10135;BME280;5107;48.850;8.924;2022-10-19T01:15:59;97800.94;;;12.76;97.53
10135;BME280;5107;48.850;8.924;2022-10-19T01:18:39;97796.19;;;12.80;98.65
10135;BME280;5107;48.850;8.924;2022-10-19T01:21:21;97801.81;;;12.85;99.33
10135;BME280;5107;48.850;8.924;2022-10-19T01:24:25;97795.06;;;12.90;99.60
10135;BME280;5107;48.850;8.924;2022-10-19T01:27:29;97789.91;;;12.81;98.40
10135;BME280;5107;48.850;8.924;2022-10-19T01:30:14;97790.50;;;12.67;97.41
10135;BME280;5107;48.850;8.924;2022-10-19T01:33:05;97795.47;;;12.70;97.30
10135;BME280;5107;48.850;8.924;2022-10-19T01:35:39;97782.25;;;12.70;97.11
10135;BME280;5107;48.850;8.924;2022-10-19T01:38:21;97782.94;;;12.72;97.10
10135;BME280;5107;48.850;8.924;2022-10-19T01:40:55;97781.34;;;12.79;97.33
10135;BME280;5107;48.850;8.924;2022-10-19T01:43:32;97774.94;;;12.64;96.33
10135;BME280;5107;48.850;8.924;2022-10-19T01:46:10;97773.28;;;12.54;96.68
10135;BME280;5107;48.850;8.924;2022-10-19T01:48:43;97774.59;;;12.59;97.90
10135;BME280;5107;48.850;8.924;2022-10-19T01:51:16;97771.66;;;12.62;98.49
10135;BME280;5107;48.850;8.924;2022-10-19T01:53:48;97772.50;;;12.62;98.46
10135;BME280;5107;48.850;8.924;2022-10-19T01:56:20;97774.31;;;12.62;98.28
10135;BME280;5107;48.850;8.924;2022-10-19T01:58:50;97767.69;;;12.66;98.29
10135;BME280;5107;48.850;8.924;2022-10-19T02:01:22;97767.16;;;12.80;97.66
10135;BME280;5107;48.850;8.924;2022-10-19T02:03:52;97764.31;;;12.81;98.23
10135;BME280;5107;48.850;8.924;2022-10-19T02:06:20;97772.63;;;12.86;98.00
10135;BME280;5107;48.850;8.924;2022-10-19T02:08:50;97767.50;;;12.85;98.29
10135;BME280;5107;48.850;8.924;2022-10-19T02:11:19;97773.63;;;12.93;98.01
10135;BME280;5107;48.850;8.924;2022-10-19T02:13:51;97766.88;;;12.99;98.71
10135;BME280;5107;48.850;8.924;2022-10-19T02:16:25;97761.78;;;13.06;99.18
10135;BME280;5107;48.850;8.924;2022-10-19T02:18:54;97761.69;;;13.15;100.00
10135;BME280;5107;48.850;8.924;2022-10-19T02:21:22;97758.09;;;13.24;100.00
10135;BME280;5107;48.850;8.924;2022-10-19T02:23:49;97759.28;;;13.30;100.00
10135;BME280;5107;48.850;8.924;2022-10-19T02:26:17;97751.53;;;13.28;99.62
10135;BME280;5107;48.850;8.924;2022-10-19T02:28:44;97754.66;;;13.32;100.00
10135;BME280;5107;48.850;8.924;2022-10-19T02:31:12;97751.84;;;13.34;100.00
10135;BME280;5107;48.850;8.924;2022-10-19T02:33:40;97742.75;;;13.28;100.00
10135;BME280;5107;48.850;8.924;2022-10-19T02:36:07;97745.56;;;13.26;100.00
10135;BME280;5107;48.850;8.924;2022-10-19T02:38:34;97746.91;;;13.31;100.00
10135;BME280;5107;48.850;8.924;2022-10-19T02:41:10;97747.56;;;13.41;100.00
10135;BME280;5107;48.850;8.924;2022-10-19T02:43:42;97743.13;;;13.49;100.00
10135;BME280;5107;48.850;8.924;2022-10-19T02:46:19;97747.13;;;13.53;100.00
10135;BME280;5107;48.850;8.924;2022-10-19T02:48:51;97743.63;;;13.53;100.00
10135;BME280;5107;48.850;8.924;2022-10-19T02:51:31;97736.38;;;13.47;100.00
10135;BME280;5107;48.850;8.924;2022-10-19T02:53:59;97738.69;;;13.58;100.00
10135;BME280;5107;48.850;8.924;2022-10-19T02:56:26;97739.03;;;13.63;100.00
10135;BME280;5107;48.850;8.924;2022-10-19T02:58:54;97735.88;;;13.67;100.00
10135;BME280;5107;48.850;8.924;2022-10-19T03:01:23;97742.16;;;13.75;100.00
10135;BME280;5107;48.850;8.924;2022-10-19T03:03:51;97730.44;;;13.77;100.00
10135;BME280;5107;48.850;8.924;2022-10-19T03:06:18;97729.47;;;13.78;100.00
10135;BME280;5107;48.850;8.924;2022-10-19T03:08:45;97724.47;;;13.75;100.00
10135;BME280;5107;48.850;8.924;2022-10-19T03:11:12;97721.34;;;13.63;100.00
10135;BME280;5107;48.850;8.924;2022-10-19T03:13:40;97714.72;;;13.59;100.00
10135;BME280;5107;48.850;8.924;2022-10-19T03:16:09;97719.69;;;13.54;100.00
10135;BME280;5107;48.850;8.924;2022-10-19T03:18:36;97719.50;;;13.56;100.00
10135;BME280;5107;48.850;8.924;2022-10-19T03:21:08;97710.91;;;13.54;100.00
10135;BME280;5107;48.850;8.924;2022-10-19T03:23:36;97715.03;;;13.64;100.00
10135;BME280;5107;48.850;8.924;2022-10-19T03:26:04;97707.13;;;13.73;100.00
10135;BME280;5107;48.850;8.924;2022-10-19T03:28:31;97710.25;;;13.68;100.00
10135;BME280;5107;48.850;8.924;2022-10-19T03:30:58;97716.91;;;13.72;100.00
10135;BME280;5107;48.850;8.924;2022-10-19T03:33:25;97712.75;;;13.78;100.00
10135;BME280;5107;48.850;8.924;2022-10-19T03:36:16;97711.91;;;13.69;100.00
10135;BME280;5107;48.850;8.924;2022-10-19T03:38:45;97703.31;;;13.67;100.00
10135;BME280;5107;48.850;8.924;2022-10-19T03:41:12;97705.28;;;13.73;100.00
10135;BME280;5107;48.850;8.924;2022-10-19T03:43:39;97709.94;;;13.71;100.00
10135;BME280;5107;48.850;8.924;2022-10-19T03:46:07;97710.28;;;13.76;100.00
10135;BME280;5107;48.850;8.924;2022-10-19T03:48:34;97706.78;;;13.76;100.00
10135;BME280;5107;48.850;8.924;2022-10-19T03:51:04;97707.78;;;13.83;100.00
10135;BME280;5107;48.850;8.924;2022-10-19T03:53:33;97710.78;;;13.88;100.00
10135;BME280;5107;48.850;8.924;2022-10-19T03:56:03;97709.28;;;13.85;100.00
10135;BME280;5107;48.850;8.924;2022-10-19T03:58:32;97713.25;;;13.89;100.00
10135;BME280;5107;48.850;8.924;2022-10-19T04:00:59;97702.50;;;13.99;100.00
10135;BME280;5107;48.850;8.924;2022-10-19T04:03:27;97713.59;;;14.02;100.00
10135;BME280;5107;48.850;8.924;2022-10-19T04:06:01;97702.31;;;14.09;100.00
10135;BME280;5107;48.850;8.924;2022-10-19T04:08:29;97704.63;;;14.20;100.00
10135;BME280;5107;48.850;8.924;2022-10-19T04:11:03;97704.28;;;14.15;100.00
10135;BME280;5107;48.850;8.924;2022-10-19T04:13:31;97702.16;;;14.18;100.00
10135;BME280;5107;48.850;8.924;2022-10-19T04:15:59;97701.66;;;14.15;100.00
10135;BME280;5107;48.850;8.924;2022-10-19T04:18:26;97703.63;;;14.21;100.00
10135;BME280;5107;48.850;8.924;2022-10-19T04:20:56;97692.53;;;14.25;100.00
10135;BME280;5107;48.850;8.924;2022-10-19T04:23:26;97706.63;;;14.18;100.00
10135;BME280;5107;48.850;8.924;2022-10-19T04:25:59;97704.97;;;14.17;100.00
10135;BME280;5107;48.850;8.924;2022-10-19T04:28:28;97697.03;;;14.09;100.00
10135;BME280;5107;48.850;8.924;2022-10-19T04:30:55;97702.81;;;14.12;100.00
10135;BME280;5107;48.850;8.924;2022-10-19T04:33:23;97695.88;;;14.11;100.00
10135;BME280;5107;48.850;8.924;2022-10-19T04:35:50;97698.84;;;14.16;100.00
10135;BME280;5107;48.850;8.924;2022-10-19T04:38:17;97701.47;;;14.16;100.00
10135;BME280;5107;48.850;8.924;2022-10-19T04:40:44;97704.63;;;14.28;100.00
10135;BME280;5107;48.850;8.924;2022-10-19T04:43:11;97701.31;;;14.26;100.00
10135;BME280;5107;48.850;8.924;2022-10-19T04:45:39;97696.34;;;14.31;100.00
10135;BME280;5107;48.850;8.924;2022-10-19T04:48:06;97705.44;;;14.28;100.00
10135;BME280;5107;48.850;8.924;2022-10-19T04:50:33;97704.63;;;14.20;100.00
10135;BME280;5107;48.850;8.924;2022-10-19T04:53:00;97699.50;;;14.26;100.00
10135;BME280;5107;48.850;8.924;2022-10-19T04:55:27;97700.00;;;14.30;100.00
10135;BME280;5107;48.850;8.924;2022-10-19T04:57:54;97698.31;;;14.37;100.00
10135;BME280;5107;48.850;8.924;2022-10-19T05:00:21;97697.81;;;14.50;100.00
10135;BME280;5107;48.850;8.924;2022-10-19T05:02:50;97699.63;;;14.49;100.00
10135;BME280;5107;48.850;8.924;2022-10-19T05:05:17;97702.47;;;14.39;100.00
10135;BME280;5107;48.850;8.924;2022-10-19T05:07:44;97701.13;;;14.35;100.00
10135;BME280;5107;48.850;8.924;2022-10-19T05:10:11;97700.47;;;14.41;100.00
10135;BME280;5107;48.850;8.924;2022-10-19T05:12:38;97697.34;;;14.46;100.00
10135;BME280;5107;48.850;8.924;2022-10-19T05:15:07;97691.53;;;14.51;100.00
10135;BME280;5107;48.850;8.924;2022-10-19T05:17:34;97695.63;;;14.61;100.00
10135;BME280;5107;48.850;8.924;2022-10-19T05:20:03;97695.63;;;14.61;100.00
10135;BME280;5107;48.850;8.924;2022-10-19T05:22:30;97692.03;;;14.54;100.00
10135;BME280;5107;48.850;8.924;2022-10-19T05:24:57;97696.97;;;14.49;100.00
10135;BME280;5107;48.850;8.924;2022-10-19T05:27:24;97702.63;;;14.38;100.00
10135;BME280;5107;48.850;8.924;2022-10-19T05:29:51;97696.34;;;14.31;100.00
10135;BME280;5107;48.850;8.924;2022-10-19T05:32:18;97694.19;;;14.26;100.00
10135;BME280;5107;48.850;8.924;2022-10-19T05:34:46;97697.53;;;14.20;100.00
10135;BME280;5107;48.850;8.924;2022-10-19T05:37:15;97697.38;;;14.14;100.00
10135;BME280;5107;48.850;8.924;2022-10-19T05:39:42;97685.13;;;14.04;100.00
10135;BME280;5107;48.850;8.924;2022-10-19T05:42:09;97684.16;;;13.97;100.00
10135;BME280;5107;48.850;8.924;2022-10-19T05:44:36;97685.31;;;13.95;100.00
10135;BME280;5107;48.850;8.924;2022-10-19T05:47:03;97701.50;;;13.92;100.00
10135;BME280;5107;48.850;8.924;2022-10-19T05:49:30;97698.19;;;13.90;100.00
10135;BME280;5107;48.850;8.924;2022-10-19T05:51:57;97694.06;;;13.87;100.00
10135;BME280;5107;48.850;8.924;2022-10-19T05:54:26;97690.09;;;13.83;100.00
10135;BME280;5107;48.850;8.924;2022-10-19T05:56:53;97690.25;;;13.82;100.00
10135;BME280;5107;48.850;8.924;2022-10-19T05:59:22;97687.13;;;13.78;100.00
10135;BME280;5107;48.850;8.924;2022-10-19T06:01:50;97694.56;;;13.83;100.00
10135;BME280;5107;48.850;8.924;2022-10-19T06:04:17;97696.56;;;13.81;100.00
10135;BME280;5107;48.850;8.924;2022-10-19T06:06:44;97698.53;;;13.79;100.00
10135;BME280;5107;48.850;8.924;2022-10-19T06:09:11;97690.44;;;13.72;100.00
10135;BME280;5107;48.850;8.924;2022-10-19T06:11:41;97699.38;;;13.71;100.00
10135;BME280;5107;48.850;8.924;2022-10-19T06:14:12;97702.00;;;13.71;100.00
10135;BME280;5107;48.850;8.924;2022-10-19T06:16:40;97700.00;;;13.65;100.00
10135;BME280;5107;48.850;8.924;2022-10-19T06:19:07;97706.31;;;13.64;100.00
10135;BME280;5107;48.850;8.924;2022-10-19T06:21:34;97710.09;;;13.61;100.00
10135;BME280;5107;48.850;8.924;2022-10-19T06:24:03;97714.72;;;13.59;100.00
10135;BME280;5107;48.850;8.924;2022-10-19T06:26:33;97712.22;;;13.58;100.00
10135;BME280;5107;48.850;8.924;2022-10-19T06:29:03;97712.22;;;13.58;100.00
10135;BME280;5107;48.850;8.924;2022-10-19T06:31:33;97706.63;;;13.53;100.00
10135;BME280;5107;48.850;8.924;2022-10-19T06:34:00;97711.56;;;13.48;100.00
10135;BME280;5107;48.850;8.924;2022-10-19T06:36:29;97711.75;;;13.46;100.00
10135;BME280;5107;48.850;8.924;2022-10-19T06:38:57;97713.56;;;13.46;100.00
10135;BME280;5107;48.850;8.924;2022-10-19T06:41:27;97714.53;;;13.45;100.00
10135;BME280;5107;48.850;8.924;2022-10-19T06:43:55;97708.41;;;13.44;100.00
10135;BME280;5107;48.850;8.924;2022-10-19T06:46:25;97723.97;;;13.47;100.00
10135;BME280;5107;48.850;8.924;2022-10-19T06:48:54;97712.72;;;13.45;100.00
10135;BME280;5107;48.850;8.924;2022-10-19T06:51:23;97720.50;;;13.47;100.00
10135;BME280;5107;48.850;8.924;2022-10-19T06:53:51;97725.78;;;13.47;100.00
10135;BME280;5107;48.850;8.924;2022-10-19T06:56:18;97718.19;;;13.52;100.00
10135;BME280;5107;48.850;8.924;2022-10-19T06:58:45;97727.13;;;13.59;100.00
10135;BME280;5107;48.850;8.924;2022-10-19T07:01:14;97728.63;;;13.70;100.00
10135;BME280;5107;48.850;8.924;2022-10-19T07:03:43;97728.47;;;13.79;100.00
10135;BME280;5107;48.850;8.924;2022-10-19T07:06:11;97727.97;;;13.84;100.00
10135;BME280;5107;48.850;8.924;2022-10-19T07:08:40;97723.81;;;13.73;100.00
10135;BME280;5107;48.850;8.924;2022-10-19T07:11:10;97730.78;;;13.90;100.00
10135;BME280;5107;48.850;8.924;2022-10-19T07:13:37;97732.59;;;13.82;100.00
10135;BME280;5107;48.850;8.924;2022-10-19T07:16:07;97726.66;;;13.88;100.00
10135;BME280;5107;48.850;8.924;2022-10-19T07:18:37;97726.81;;;14.02;100.00
10135;BME280;5107;48.850;8.924;2022-10-19T07:21:08;97726.50;;;14.14;100.00
10135;BME280;5107;48.850;8.924;2022-10-19T07:23:38;97727.31;;;14.22;100.00
10135;BME280;5107;48.850;8.924;2022-10-19T07:26:08;97723.47;;;14.33;100.00
10135;BME280;5107;48.850;8.924;2022-10-19T07:28:37;97729.44;;;14.51;100.00
10135;BME280;5107;48.850;8.924;2022-10-19T07:31:07;97725.75;;;14.60;100.00
10135;BME280;5107;48.850;8.924;2022-10-19T07:33:34;97725.25;;;14.65;100.00
10135;BME280;5107;48.850;8.924;2022-10-19T07:36:06;97723.41;;;14.73;100.00
10135;BME280;5107;48.850;8.924;2022-10-19T07:38:35;97724.38;;;14.89;100.00
10135;BME280;5107;48.850;8.924;2022-10-19T07:41:07;97728.34;;;14.85;100.00
10135;BME280;5107;48.850;8.924;2022-10-19T07:43:35;97724.53;;;14.87;100.00
10135;BME280;5107;48.850;8.924;2022-10-19T07:46:04;97728.19;;;14.78;100.00
10135;BME280;5107;48.850;8.924;2022-10-19T07:48:33;97725.69;;;14.85;100.00
10135;BME280;5107;48.850;8.924;2022-10-19T07:51:01;97729.59;;;15.05;100.00
10135;BME280;5107;48.850;8.924;2022-10-19T07:53:30;97723.38;;;15.21;100.00
10135;BME280;5107;48.850;8.924;2022-10-19T07:56:03;97716.69;;;15.02;99.38
10135;BME280;5107;48.850;8.924;2022-10-19T07:58:30;97722.59;;;15.12;98.26
10135;BME280;5107;48.850;8.924;2022-10-19T08:01:00;97722.97;;;15.32;97.79
10135;BME280;5107;48.850;8.924;2022-10-19T08:03:27;97718.50;;;15.32;95.88
10135;BME280;5107;48.850;8.924;2022-10-19T08:05:59;97727.53;;;15.54;94.33
10135;BME280;5107;48.850;8.924;2022-10-19T08:08:27;97723.78;;;15.71;93.24
10135;BME280;5107;48.850;8.924;2022-10-19T08:10:56;97723.06;;;15.77;91.44
10135;BME280;5107;48.850;8.924;2022-10-19T08:13:23;97730.13;;;15.85;90.56
10135;BME280;5107;48.850;8.924;2022-10-19T08:15:50;97721.72;;;15.81;89.63
10135;BME280;5107;48.850;8.924;2022-10-19T08:18:17;97722.94;;;15.40;91.97
10135;BME280;5107;48.850;8.924;2022-10-19T08:20:47;97727.91;;;15.43;91.75
10135;BME280;5107;48.850;8.924;2022-10-19T08:23:14;97721.91;;;15.18;91.82
10135;BME280;5107;48.850;8.924;2022-10-19T08:25:41;97720.97;;;15.34;92.18
10135;BME280;5107;48.850;8.924;2022-10-19T08:28:10;97720.66;;;15.37;91.65
10135;BME280;5107;48.850;8.924;2022-10-19T08:30:37;97718.59;;;15.47;90.46
10135;BME280;5107;48.850;8.924;2022-10-19T08:33:04;97718.69;;;15.62;90.47
10135;BME280;5107;48.850;8.924;2022-10-19T08:35:33;97718.25;;;15.81;89.45
10135;BME280;5107;48.850;8.924;2022-10-19T08:38:00;97720.88;;;15.81;88.13
10135;BME280;5107;48.850;8.924;2022-10-19T08:40:29;97723.16;;;15.84;87.86
10135;BME280;5107;48.850;8.924;2022-10-19T08:43:00;97724.31;;;15.89;88.15
10135;BME280;5107;48.850;8.924;2022-10-19T08:45:41;97720.56;;;15.99;88.49
10135;BME280;5107;48.850;8.924;2022-10-19T08:48:24;97728.72;;;15.97;88.79
10135;BME280;5107;48.850;8.924;2022-10-19T08:50:52;97723.16;;;15.84;88.29
10135;BME280;5107;48.850;8.924;2022-10-19T08:53:29;97724.34;;;15.59;88.70
10135;BME280;5107;48.850;8.924;2022-10-19T08:56:14;97716.00;;;15.70;89.50
10135;BME280;5107;48.850;8.924;2022-10-19T08:59:02;97708.38;;;15.67;88.92
10135;BME280;5107;48.850;8.924;2022-10-19T09:01:39;97707.13;;;15.77;89.19
10135;BME280;5107;48.850;8.924;2022-10-19T09:04:16;97711.72;;;15.83;89.10
10135;BME280;5107;48.850;8.924;2022-10-19T09:06:55;97711.22;;;15.88;90.04
10135;BME280;5107;48.850;8.924;2022-10-19T09:09:28;97708.44;;;15.81;91.04
10135;BME280;5107;48.850;8.924;2022-10-19T09:12:03;97700.22;;;15.91;91.57
10135;BME280;5107;48.850;8.924;2022-10-19T09:14:37;97704.53;;;15.92;91.44
10135;BME280;5107;48.850;8.924;2022-10-19T09:17:12;97703.13;;;15.81;89.36
10135;BME280;5107;48.850;8.924;2022-10-19T09:19:40;97699.59;;;15.89;88.05
10135;BME280;5107;48.850;8.924;2022-10-19T09:22:15;97694.97;;;15.83;86.13
10135;BME280;5107;48.850;8.924;2022-10-19T09:24:50;97691.19;;;16.00;86.36
10135;BME280;5107;48.850;8.924;2022-10-19T09:27:21;97696.22;;;15.95;88.86
10135;BME280;5107;48.850;8.924;2022-10-19T09:29:54;97695.66;;;16.00;89.62
10135;BME280;5107;48.850;8.924;2022-10-19T09:32:27;97702.25;;;15.89;90.10
10135;BME280;5107;48.850;8.924;2022-10-19T09:34:59;97700.34;;;15.75;89.87
10135;BME280;5107;48.850;8.924;2022-10-19T09:37:28;97694.28;;;15.66;90.49
10135;BME280;5107;48.850;8.924;2022-10-19T09:39:55;97694.91;;;15.45;90.37
10135;BME280;5107;48.850;8.924;2022-10-19T09:42:24;97695.72;;;15.46;91.38
10135;BME280;5107;48.850;8.924;2022-10-19T09:44:54;97704.13;;;15.49;91.98
10135;BME280;5107;48.850;8.924;2022-10-19T09:47:33;97702.28;;;15.58;90.46
10135;BME280;5107;48.850;8.924;2022-10-19T09:50:17;97704.06;;;15.66;89.80
10135;BME280;5107;48.850;8.924;2022-10-19T09:52:45;97694.53;;;15.48;87.46
10135;BME280;5107;48.850;8.924;2022-10-19T09:55:25;97703.19;;;15.42;86.66
10135;BME280;5107;48.850;8.924;2022-10-19T09:58:01;97705.84;;;15.42;86.70
10135;BME280;5107;48.850;8.924;2022-10-19T10:00:35;97703.81;;;15.52;86.45
10135;BME280;5107;48.850;8.924;2022-10-19T10:03:06;97707.13;;;15.54;85.64
10135;BME280;5107;48.850;8.924;2022-10-19T10:05:36;97704.50;;;15.46;85.68
10135;BME280;5107;48.850;8.924;2022-10-19T10:08:12;97702.97;;;15.52;86.02
10135;BME280;5107;48.850;8.924;2022-10-19T10:10:44;97694.53;;;15.57;85.77
10135;BME280;5107;48.850;8.924;2022-10-19T10:13:16;97691.34;;;15.61;85.59
10135;BME280;5107;48.850;8.924;2022-10-19T10:15:46;97699.78;;;15.65;85.29
10135;BME280;5107;48.850;8.924;2022-10-19T10:18:17;97691.75;;;15.42;85.80
10135;BME280;5107;48.850;8.924;2022-10-19T10:21:03;97695.19;;;15.50;86.10
10135;BME280;5107;48.850;8.924;2022-10-19T10:23:34;97694.25;;;15.43;86.50
10135;BME280;5107;48.850;8.924;2022-10-19T10:26:04;97698.22;;;15.47;86.17
10135;BME280;5107;48.850;8.924;2022-10-19T10:28:32;97698.66;;;15.28;87.45
10135;BME280;5107;48.850;8.924;2022-10-19T10:31:02;97699.06;;;15.40;87.31
10135;BME280;5107;48.850;8.924;2022-10-19T10:33:34;97694.88;;;15.53;87.00
10135;BME280;5107;48.850;8.924;2022-10-19T10:36:06;97690.03;;;15.57;86.27
10135;BME280;5107;48.850;8.924;2022-10-19T10:38:38;97688.03;;;15.59;85.91
10135;BME280;5107;48.850;8.924;2022-10-19T10:41:11;97691.31;;;15.38;86.65
10135;BME280;5107;48.850;8.924;2022-10-19T10:43:56;97680.81;;;15.45;86.67
10135;BME280;5107;48.850;8.924;2022-10-19T10:46:33;97676.50;;;15.44;86.39
10135;BME280;5107;48.850;8.924;2022-10-19T10:49:04;97667.72;;;15.43;86.45
10135;BME280;5107;48.850;8.924;2022-10-19T10:51:38;97669.09;;;15.39;86.70
10135;BME280;5107;48.850;8.924;2022-10-19T10:54:17;97673.31;;;15.48;86.51
10135;BME280;5107;48.850;8.924;2022-10-19T10:57:07;97664.88;;;15.45;86.22
10135;BME280;5107;48.850;8.924;2022-10-19T10:59:46;97673.13;;;15.50;86.04
10135;BME280;5107;48.850;8.924;2022-10-19T11:02:38;97675.31;;;15.46;86.17
10135;BME280;5107;48.850;8.924;2022-10-19T11:05:12;97666.78;;;15.36;86.84
10135;BME280;5107;48.850;8.924;2022-10-19T11:07:44;97670.06;;;15.38;86.94
10135;BME280;5107;48.850;8.924;2022-10-19T11:10:21;97663.22;;;15.44;87.23
10135;BME280;5107;48.850;8.924;2022-10-19T11:12:58;97664.41;;;15.41;86.81
10135;BME280;5107;48.850;8.924;2022-10-19T11:15:33;97661.59;;;15.43;86.71
10135;BME280;5107;48.850;8.924;2022-10-19T11:18:14;97658.75;;;15.44;86.43
10135;BME280;5107;48.850;8.924;2022-10-19T11:20:53;97645.94;;;15.56;85.75
10135;BME280;5107;48.850;8.924;2022-10-19T11:23:46;97640.63;;;15.56;85.49
10135;BME280;5107;48.850;8.924;2022-10-19T11:26:37;97638.91;;;15.63;84.83
10135;BME280;5107;48.850;8.924;2022-10-19T11:29:22;97638.53;;;15.66;84.47
10135;BME280;5107;48.850;8.924;2022-10-19T11:31:53;97632.66;;;15.79;84.55
10135;BME280;5107;48.850;8.924;2022-10-19T11:34:41;97637.03;;;15.72;83.45
10135;BME280;5107;48.850;8.924;2022-10-19T11:37:23;97627.41;;;15.71;83.85
10135;BME280;5107;48.850;8.924;2022-10-19T11:40:07;97615.66;;;15.65;83.59
10135;BME280;5107;48.850;8.924;2022-10-19T11:42:48;97616.50;;;15.66;83.32
10135;BME280;5107;48.850;8.924;2022-10-19T11:45:34;97617.22;;;15.60;84.33
10135;BME280;5107;48.850;8.924;2022-10-19T11:48:35;97610.66;;;15.70;83.85
10135;BME280;5107;48.850;8.924;2022-10-19T11:51:11;97608.66;;;15.72;84.15
10135;BME280;5107;48.850;8.924;2022-10-19T11:53:54;97604.09;;;15.81;83.86
10135;BME280;5107;48.850;8.924;2022-10-19T11:56:33;97599.25;;;15.84;83.36
10135;BME280;5107;48.850;8.924;2022-10-19T11:59:10;97592.31;;;15.98;83.17
10135;BME280;5107;48.850;8.924;2022-10-19T12:01:53;97587.00;;;15.98;82.42
10135;BME280;5107;48.850;8.924;2022-10-19T12:04:41;97596.06;;;16.18;81.33
10135;BME280;5107;48.850;8.924;2022-10-19T12:07:41;97589.41;;;16.22;81.22
10135;BME280;5107;48.850;8.924;2022-10-19T12:10:24;97590.59;;;16.20;80.70
10135;BME280;5107;48.850;8.924;2022-10-19T12:12:56;97583.63;;;16.04;80.50
10135;BME280;5107;48.850;8.924;2022-10-19T12:15:29;97568.22;;;16.29;80.70
10135;BME280;5107;48.850;8.924;2022-10-19T12:18:03;97578.13;;;16.35;80.93
10135;BME280;5107;48.850;8.924;2022-10-19T12:20:37;97577.38;;;16.41;79.82
10135;BME280;5107;48.850;8.924;2022-10-19T12:23:20;97581.56;;;16.50;80.10
10135;BME280;5107;48.850;8.924;2022-10-19T12:25:51;97576.38;;;16.57;79.72
10135;BME280;5107;48.850;8.924;2022-10-19T12:28:23;97580.31;;;16.61;79.62
10135;BME280;5107;48.850;8.924;2022-10-19T12:30:53;97579.63;;;16.59;79.70
10135;BME280;5107;48.850;8.924;2022-10-19T12:33:24;97575.47;;;16.64;79.62
10135;BME280;5107;48.850;8.924;2022-10-19T12:36:11;97563.97;;;16.79;80.00
10135;BME280;5107;48.850;8.924;2022-10-19T12:38:46;97562.25;;;16.92;78.82
10135;BME280;5107;48.850;8.924;2022-10-19T12:41:25;97571.06;;;16.93;77.78
10135;BME280;5107;48.850;8.924;2022-10-19T12:44:06;97560.91;;;16.96;77.85
10135;BME280;5107;48.850;8.924;2022-10-19T12:46:38;97553.28;;;16.93;77.60
10135;BME280;5107;48.850;8.924;2022-10-19T12:49:50;97553.41;;;16.85;77.46
10135;BME280;5107;48.850;8.924;2022-10-19T12:52:40;97542.41;;;16.88;77.08
10135;BME280;5107;48.850;8.924;2022-10-19T12:55:25;97546.72;;;16.89;77.97
10135;BME280;5107;48.850;8.924;2022-10-19T12:58:04;97533.47;;;16.96;77.04
10135;BME280;5107;48.850;8.924;2022-10-19T13:00:34;97537.19;;;17.01;77.11
10135;BME280;5107;48.850;8.924;2022-10-19T13:03:05;97526.88;;;17.13;77.00
10135;BME280;5107;48.850;8.924;2022-10-19T13:05:34;97524.41;;;17.12;75.75
10135;BME280;5107;48.850;8.924;2022-10-19T13:08:04;97519.78;;;16.99;77.02
10135;BME280;5107;48.850;8.924;2022-10-19T13:10:32;97529.50;;;17.06;77.57
10135;BME280;5107;48.850;8.924;2022-10-19T13:13:01;97517.69;;;16.94;77.30
10135;BME280;5107;48.850;8.924;2022-10-19T13:15:53;97522.00;;;16.95;77.55
10135;BME280;5107;48.850;8.924;2022-10-19T13:19:18;97517.44;;;17.11;77.56
10135;BME280;5107;48.850;8.924;2022-10-19T13:25:21;97512.38;;;17.16;78.22
10135;BME280;5107;48.850;8.924;2022-10-19T13:27:53;97503.56;;;17.36;77.04
10135;BME280;5107;48.850;8.924;2022-10-19T13:31:03;97510.13;;;17.62;76.67
10135;BME280;5107;48.850;8.924;2022-10-19T13:33:57;97512.28;;;18.14;73.90
10135;BME280;5107;48.850;8.924;2022-10-19T13:36:25;97512.69;;;18.11;71.94
10135;BME280;5107;48.850;8.924;2022-10-19T13:39:19;97495.56;;;18.33;71.54